createdAt,value
2022-12-01T00:01:13.887Z,27.13
2022-12-01T00:03:40.616Z,27.73
2022-12-01T00:06:11.505Z,25.83
2022-12-01T00:08:38.203Z,24.65
2022-12-01T00:11:12.943Z,22.88
2022-12-01T00:13:39.600Z,23.10
2022-12-01T00:16:13.442Z,21.38
2022-12-01T00:18:40.197Z,23.17
2022-12-01T00:21:13.147Z,23.55
2022-12-01T00:23:43.304Z,25.33
2022-12-01T00:26:09.897Z,25.50
2022-12-01T00:28:36.713Z,24.92
2022-12-01T00:31:07.975Z,23.83
2022-12-01T00:33:34.525Z,23.55
2022-12-01T00:36:02.052Z,31.23
2022-12-01T00:38:29.478Z,34.15
2022-12-01T00:40:56.195Z,34.65
2022-12-01T00:43:22.950Z,37.28
2022-12-01T00:45:51.940Z,32.50
2022-12-01T00:48:24.350Z,28.30
2022-12-01T00:50:55.015Z,24.65
2022-12-01T00:53:22.949Z,23.40
2022-12-01T00:55:49.465Z,23.17
2022-12-01T00:58:16.102Z,24.40
2022-12-01T01:00:42.681Z,24.55
2022-12-01T01:03:09.984Z,22.50
2022-12-01T01:05:38.015Z,24.05
2022-12-01T01:08:13.544Z,23.00
2022-12-01T01:10:41.572Z,26.45
2022-12-01T01:13:08.624Z,31.13
2022-12-01T01:15:35.440Z,36.92
2022-12-01T01:18:02.236Z,40.08
2022-12-01T01:20:29.657Z,42.38
2022-12-01T01:22:56.239Z,47.05
2022-12-01T01:25:23.017Z,46.17
2022-12-01T01:27:49.989Z,51.75
2022-12-01T01:30:17.348Z,44.67
2022-12-01T01:32:43.910Z,48.65
2022-12-01T01:35:10.459Z,44.22
2022-12-01T01:37:36.953Z,42.10
2022-12-01T01:40:05.897Z,44.78
2022-12-01T01:42:32.407Z,47.60
2022-12-01T01:44:59.145Z,44.42
2022-12-01T01:47:35.219Z,40.45
2022-12-01T01:50:09.487Z,48.88
2022-12-01T01:52:40.447Z,45.08
2022-12-01T01:55:07.886Z,47.58
2022-12-01T01:57:34.845Z,43.42
2022-12-01T02:00:15.434Z,39.90
2022-12-01T02:05:16.560Z,39.47
2022-12-01T02:07:43.716Z,36.03
2022-12-01T02:10:13.606Z,40.78
2022-12-01T02:13:05.693Z,25.58
2022-12-01T02:16:03.578Z,25.58
2022-12-01T02:18:45.543Z,34.72
2022-12-01T02:21:35.135Z,35.08
2022-12-01T02:24:25.918Z,32.72
2022-12-01T02:27:16.351Z,38.15
2022-12-01T02:30:13.991Z,31.05
2022-12-01T02:32:48.104Z,37.03
2022-12-01T02:35:33.579Z,35.63
2022-12-01T02:38:18.121Z,33.83
2022-12-01T02:41:06.732Z,37.55
2022-12-01T02:43:47.140Z,33.45
2022-12-01T02:46:22.485Z,31.38
2022-12-01T02:48:53.231Z,34.33
2022-12-01T02:51:24.702Z,31.83
2022-12-01T02:53:52.935Z,31.23
2022-12-01T02:56:22.466Z,35.45
2022-12-01T02:58:49.334Z,32.03
2022-12-01T03:01:30.679Z,37.55
2022-12-01T03:04:16.211Z,35.90
2022-12-01T03:07:04.577Z,34.92
2022-12-01T03:10:09.099Z,33.70
2022-12-01T03:12:45.793Z,31.73
2022-12-01T03:15:28.955Z,31.10
2022-12-01T03:18:23.448Z,32.25
2022-12-01T03:21:03.075Z,32.25
2022-12-01T03:23:34.519Z,32.90
2022-12-01T03:26:05.087Z,32.53
2022-12-01T03:28:37.851Z,31.98
2022-12-01T03:31:09.158Z,32.58
2022-12-01T03:33:43.505Z,31.80
2022-12-01T03:36:14.934Z,31.48
2022-12-01T03:38:46.616Z,32.83
2022-12-01T03:43:48.626Z,29.70
2022-12-01T03:46:25.488Z,32.58
2022-12-01T03:48:52.175Z,31.95
2022-12-01T03:51:32.062Z,30.30
2022-12-01T03:54:16.627Z,30.67
2022-12-01T03:56:49.828Z,29.48
2022-12-01T03:59:19.724Z,30.88
2022-12-01T04:01:46.940Z,30.35
2022-12-01T04:04:15.039Z,29.77
2022-12-01T04:06:44.664Z,30.13
2022-12-01T04:09:11.640Z,29.10
2022-12-01T04:11:38.202Z,27.33
2022-12-01T04:14:04.723Z,29.45
2022-12-01T04:16:31.416Z,30.55
2022-12-01T04:18:58.014Z,27.80
2022-12-01T04:21:24.559Z,28.02
2022-12-01T04:23:51.133Z,29.90
2022-12-01T04:26:17.747Z,28.48
2022-12-01T04:28:44.451Z,28.77
2022-12-01T04:31:11.076Z,29.75
2022-12-01T04:33:37.631Z,30.50
2022-12-01T04:36:04.415Z,30.73
2022-12-01T04:38:31.216Z,30.60
2022-12-01T04:40:58.359Z,29.77
2022-12-01T04:43:26.430Z,32.03
2022-12-01T04:45:52.915Z,30.98
2022-12-01T04:48:19.497Z,28.60
2022-12-01T04:50:49.158Z,29.33
2022-12-01T04:53:15.740Z,28.75
2022-12-01T04:55:42.278Z,29.67
2022-12-01T04:58:08.853Z,30.27
2022-12-01T05:00:35.536Z,30.10
2022-12-01T05:03:02.300Z,35.13
2022-12-01T05:05:29.606Z,27.58
2022-12-01T05:07:58.035Z,28.75
2022-12-01T05:10:24.656Z,28.75
2022-12-01T05:12:51.197Z,30.20
2022-12-01T05:15:18.042Z,27.88
2022-12-01T05:17:44.638Z,27.50
2022-12-01T05:20:19.507Z,27.50
2022-12-01T05:23:04.990Z,24.98
2022-12-01T05:25:32.873Z,24.08
2022-12-01T05:27:59.410Z,26.02
2022-12-01T05:30:28.694Z,25.55
2022-12-01T05:32:55.830Z,24.25
2022-12-01T05:35:22.374Z,27.88
2022-12-01T05:37:48.926Z,25.55
2022-12-01T05:40:15.575Z,26.52
2022-12-01T05:42:42.092Z,23.42
2022-12-01T05:45:09.134Z,22.65
2022-12-01T05:47:35.754Z,23.38
2022-12-01T05:50:05.836Z,24.75
2022-12-01T05:52:36.204Z,23.92
2022-12-01T05:55:05.021Z,23.95
2022-12-01T05:57:33.707Z,24.27
2022-12-01T06:00:00.527Z,22.30
2022-12-01T06:02:27.153Z,22.40
2022-12-01T06:04:53.818Z,24.88
2022-12-01T06:07:21.138Z,24.15
2022-12-01T06:09:48.317Z,21.85
2022-12-01T06:12:14.947Z,21.80
2022-12-01T06:14:41.501Z,21.48
2022-12-01T06:17:07.975Z,23.02
2022-12-01T06:19:35.869Z,20.88
2022-12-01T06:22:02.623Z,19.38
2022-12-01T06:24:29.370Z,20.63
2022-12-01T06:26:55.918Z,21.48
2022-12-01T06:29:22.621Z,20.50
2022-12-01T06:31:49.333Z,20.58
2022-12-01T06:34:15.930Z,21.95
2022-12-01T06:36:42.465Z,23.27
2022-12-01T06:39:10.092Z,23.70
2022-12-01T06:41:37.831Z,23.95
2022-12-01T06:44:04.877Z,19.88
2022-12-01T06:46:31.483Z,21.63
2022-12-01T06:48:58.079Z,21.85
2022-12-01T06:51:24.640Z,20.08
2022-12-01T06:53:55.038Z,20.65
2022-12-01T06:56:22.531Z,21.08
2022-12-01T06:58:50.393Z,21.10
2022-12-01T07:01:18.294Z,18.67
2022-12-01T07:03:54.121Z,19.92
2022-12-01T07:06:20.692Z,20.45
2022-12-01T07:08:47.446Z,20.88
2022-12-01T07:11:15.768Z,19.83
2022-12-01T07:13:43.925Z,20.83
2022-12-01T07:16:10.793Z,21.13
2022-12-01T07:18:38.233Z,20.13
2022-12-01T07:21:08.964Z,20.17
2022-12-01T07:23:36.181Z,21.17
2022-12-01T07:26:11.732Z,19.17
2022-12-01T07:28:38.499Z,21.60
2022-12-01T07:31:13.231Z,20.65
2022-12-01T07:33:40.278Z,19.20
2022-12-01T07:36:08.039Z,20.05
2022-12-01T07:38:36.114Z,20.38
2022-12-01T07:41:08.397Z,21.70
2022-12-01T07:43:35.616Z,19.75
2022-12-01T07:46:22.722Z,19.88
2022-12-01T07:48:51.727Z,20.33
2022-12-01T07:51:19.548Z,18.88
2022-12-01T07:53:47.522Z,20.33
2022-12-01T07:56:14.253Z,17.88
2022-12-01T07:58:41.429Z,19.40
2022-12-01T08:01:09.135Z,19.45
2022-12-01T08:03:36.561Z,19.20
2022-12-01T08:06:04.393Z,19.23
2022-12-01T08:08:33.036Z,19.65
2022-12-01T08:11:01.775Z,19.08
2022-12-01T08:13:28.789Z,18.65
2022-12-01T08:15:55.931Z,20.23
2022-12-01T08:18:23.198Z,19.33
2022-12-01T08:20:57.117Z,21.02
2022-12-01T08:23:23.730Z,19.50
2022-12-01T08:25:50.287Z,20.27
2022-12-01T08:28:16.908Z,20.73
2022-12-01T08:30:43.619Z,21.05
2022-12-01T08:33:10.229Z,21.08
2022-12-01T08:35:36.868Z,19.83
2022-12-01T08:38:04.066Z,19.20
2022-12-01T08:40:30.971Z,21.08
2022-12-01T08:42:57.601Z,21.08
2022-12-01T08:45:24.337Z,21.00
2022-12-01T08:47:50.830Z,21.67
2022-12-01T08:50:17.410Z,21.40
2022-12-01T08:52:44.152Z,20.30
2022-12-01T08:55:10.904Z,19.88
2022-12-01T08:57:37.694Z,20.45
2022-12-01T09:00:04.898Z,20.50
2022-12-01T09:02:31.551Z,21.25
2022-12-01T09:04:58.297Z,21.45
2022-12-01T09:07:26.822Z,21.42
2022-12-01T09:09:53.585Z,21.92
2022-12-01T09:12:20.086Z,22.45
2022-12-01T09:14:46.799Z,23.20
2022-12-01T09:17:14.023Z,24.95
2022-12-01T09:19:40.620Z,23.48
2022-12-01T09:22:07.260Z,22.27
2022-12-01T09:24:33.864Z,23.90
2022-12-01T09:27:00.984Z,23.30
2022-12-01T09:29:27.447Z,23.70
2022-12-01T09:31:58.241Z,24.90
2022-12-01T09:34:25.231Z,24.08
2022-12-01T09:36:55.656Z,25.13
2022-12-01T09:39:22.214Z,26.10
2022-12-01T09:42:11.287Z,25.38
2022-12-01T09:44:49.355Z,25.77
2022-12-01T09:47:25.330Z,24.63
2022-12-01T09:50:10.169Z,25.45
2022-12-01T09:52:45.095Z,26.88
2022-12-01T09:55:13.593Z,28.58
2022-12-01T09:57:42.349Z,27.92
2022-12-01T10:00:21.775Z,26.33
2022-12-01T10:03:21.948Z,28.75
2022-12-01T10:06:25.348Z,29.48
2022-12-01T10:08:48.700Z,27.08
2022-12-01T10:11:34.408Z,28.85
2022-12-01T10:14:01.858Z,27.75
2022-12-01T10:16:43.072Z,29.42
2022-12-01T10:19:22.992Z,27.42
2022-12-01T10:22:08.615Z,29.20
2022-12-01T10:24:52.834Z,28.05
2022-12-01T10:27:22.468Z,28.45
2022-12-01T10:29:58.067Z,26.02
2022-12-01T10:32:50.073Z,25.63
2022-12-01T10:37:46.204Z,25.35
2022-12-01T10:40:17.081Z,28.42
2022-12-01T10:42:46.175Z,28.63
2022-12-01T10:45:27.645Z,29.17
2022-12-01T10:48:16.109Z,27.45
2022-12-01T10:50:48.029Z,28.02
2022-12-01T10:53:32.868Z,25.52
2022-12-01T10:56:15.137Z,28.08
2022-12-01T10:58:55.702Z,25.98
2022-12-01T11:01:27.633Z,25.17
2022-12-01T11:04:06.991Z,25.27
2022-12-01T11:06:34.892Z,25.27
2022-12-01T11:09:05.111Z,24.70
2022-12-01T11:11:38.057Z,24.33
2022-12-01T11:14:17.421Z,25.52
2022-12-01T11:16:46.647Z,23.33
2022-12-01T11:19:28.478Z,22.98
2022-12-01T11:24:33.252Z,22.85
2022-12-01T11:27:00.705Z,23.70
2022-12-01T11:29:32.608Z,21.95
2022-12-01T11:32:00.713Z,36.20
2022-12-01T11:34:31.308Z,54.10
2022-12-01T11:37:01.487Z,77.13
2022-12-01T11:39:43.773Z,78.93
2022-12-01T11:42:28.273Z,29.65
2022-12-01T11:45:05.420Z,23.33
2022-12-01T11:47:31.973Z,24.85
2022-12-01T11:50:01.441Z,23.95
2022-12-01T11:52:34.115Z,27.63
2022-12-01T11:55:12.218Z,25.42
2022-12-01T11:57:44.899Z,25.35
2022-12-01T12:00:16.914Z,25.42
2022-12-01T12:02:46.691Z,25.92
2022-12-01T12:05:30.278Z,25.90
2022-12-01T12:08:07.516Z,26.88
2022-12-01T12:10:56.185Z,24.58
2022-12-01T12:13:44.762Z,25.02
2022-12-01T12:16:37.340Z,25.23
2022-12-01T12:19:14.738Z,19.17
2022-12-01T12:22:11.205Z,28.35
2022-12-01T12:25:18.875Z,29.10
2022-12-01T12:27:53.812Z,25.90
2022-12-01T12:30:28.830Z,25.40
2022-12-01T12:33:05.150Z,24.55
2022-12-01T12:35:47.455Z,25.20
2022-12-01T12:38:20.164Z,26.20
2022-12-01T12:40:46.810Z,26.67
2022-12-01T12:43:48.314Z,26.20
2022-12-01T12:46:31.230Z,25.15
2022-12-01T12:49:21.480Z,27.02
2022-12-01T12:52:02.596Z,27.02
2022-12-01T12:54:41.868Z,24.38
2022-12-01T12:57:27.128Z,23.80
2022-12-01T13:00:28.939Z,25.52
2022-12-01T13:03:14.135Z,24.90
2022-12-01T13:05:47.084Z,23.92
2022-12-01T13:08:19.356Z,24.75
2022-12-01T13:11:08.438Z,23.85
2022-12-01T13:13:53.369Z,25.27
2022-12-01T13:16:26.113Z,25.45
2022-12-01T13:19:03.039Z,25.90
2022-12-01T13:21:36.595Z,25.38
2022-12-01T13:24:04.822Z,24.08
2022-12-01T13:26:34.605Z,24.65
2022-12-01T13:29:06.113Z,24.42
2022-12-01T13:31:43.935Z,26.52
2022-12-01T13:34:19.187Z,26.77
2022-12-01T13:36:53.769Z,28.98
2022-12-01T13:39:29.152Z,29.70
2022-12-01T13:42:09.309Z,30.10
2022-12-01T13:44:42.553Z,29.40
2022-12-01T13:47:11.775Z,29.02
2022-12-01T13:49:50.256Z,29.00
2022-12-01T13:52:23.114Z,28.95
2022-12-01T13:55:08.101Z,28.25
2022-12-01T13:57:37.980Z,28.85
2022-12-01T14:00:04.577Z,28.30
2022-12-01T14:02:39.052Z,29.42
2022-12-01T14:05:24.349Z,27.17
2022-12-01T14:07:52.533Z,29.60
2022-12-01T14:10:19.379Z,29.00
2022-12-01T14:12:46.698Z,29.50
2022-12-01T14:15:33.736Z,27.73
2022-12-01T14:18:06.190Z,27.02
2022-12-01T14:20:43.184Z,29.23
2022-12-01T14:23:27.064Z,27.65
2022-12-01T14:25:59.113Z,26.73
2022-12-01T14:28:59.841Z,28.27
2022-12-01T14:31:32.617Z,25.85
2022-12-01T14:34:02.280Z,26.73
2022-12-01T14:36:53.768Z,27.05
2022-12-01T14:39:25.912Z,25.60
2022-12-01T14:41:57.080Z,25.88
2022-12-01T14:44:32.780Z,26.38
2022-12-01T14:47:13.390Z,26.60
2022-12-01T14:49:47.237Z,24.92
2022-12-01T14:52:38.133Z,26.13
2022-12-01T14:55:13.082Z,28.85
2022-12-01T14:57:44.144Z,27.00
2022-12-01T15:00:20.165Z,21.42
2022-12-01T15:02:56.042Z,26.15
2022-12-01T15:05:28.558Z,29.52
2022-12-01T15:08:18.577Z,31.13
2022-12-01T15:10:59.814Z,29.00
2022-12-01T15:13:29.164Z,33.13
2022-12-01T15:15:59.865Z,32.33
2022-12-01T15:18:32.322Z,32.88
2022-12-01T15:21:11.110Z,31.60
2022-12-01T15:23:52.065Z,30.05
2022-12-01T15:26:23.485Z,29.73
2022-12-01T15:28:51.192Z,31.15
2022-12-01T15:31:18.043Z,29.42
2022-12-01T15:33:51.989Z,29.30
2022-12-01T15:36:19.756Z,29.70
2022-12-01T15:38:48.094Z,31.63
2022-12-01T15:41:30.032Z,32.45
2022-12-01T15:43:59.363Z,32.38
2022-12-01T15:46:34.089Z,36.60
2022-12-01T15:49:19.353Z,37.33
2022-12-01T15:51:48.901Z,35.05
2022-12-01T15:54:25.562Z,32.65
2022-12-01T15:56:57.564Z,30.83
2022-12-01T15:59:28.829Z,30.65
2022-12-01T16:01:56.233Z,31.20
2022-12-01T16:04:32.271Z,30.60
2022-12-01T16:07:06.952Z,31.45
2022-12-01T16:09:57.603Z,30.55
2022-12-01T16:12:29.852Z,31.50
2022-12-01T16:15:00.584Z,31.63
2022-12-01T16:17:48.824Z,31.20
2022-12-01T16:20:24.417Z,35.50
2022-12-01T16:22:57.099Z,37.95
2022-12-01T16:25:41.487Z,36.63
2022-12-01T16:28:22.526Z,36.40
2022-12-01T16:30:49.951Z,38.92
2022-12-01T16:33:19.957Z,40.00
2022-12-01T16:35:46.498Z,42.38
2022-12-01T16:38:21.933Z,42.42
2022-12-01T16:41:16.040Z,40.88
2022-12-01T16:43:59.173Z,41.33
2022-12-01T16:46:29.654Z,40.58
2022-12-01T16:48:56.303Z,40.47
2022-12-01T16:51:29.903Z,36.88
2022-12-01T16:54:10.246Z,37.10
2022-12-01T16:56:36.782Z,38.85
2022-12-01T16:59:03.402Z,40.85
2022-12-01T17:01:30.113Z,39.35
2022-12-01T17:03:56.987Z,38.80
2022-12-01T17:06:24.292Z,34.70
2022-12-01T17:08:51.742Z,37.40
2022-12-01T17:11:18.426Z,35.28
2022-12-01T17:13:45.372Z,31.23
2022-12-01T17:16:17.977Z,32.03
2022-12-01T17:18:45.428Z,27.90
2022-12-01T17:21:12.123Z,31.50
2022-12-01T17:23:39.324Z,31.20
2022-12-01T17:26:11.828Z,31.83
2022-12-01T17:28:39.151Z,32.55
2022-12-01T17:31:07.209Z,32.50
2022-12-01T17:33:35.212Z,34.53
2022-12-01T17:36:04.506Z,32.50
2022-12-01T17:38:34.743Z,33.80
2022-12-01T17:41:03.955Z,34.88
2022-12-01T17:43:30.620Z,34.53
2022-12-01T17:45:57.624Z,34.58
2022-12-01T17:48:24.382Z,32.03
2022-12-01T17:50:51.011Z,33.00
2022-12-01T17:53:17.716Z,33.40
2022-12-01T17:55:44.709Z,34.30
2022-12-01T17:58:11.428Z,33.78
2022-12-01T18:00:38.113Z,34.42
2022-12-01T18:03:04.868Z,33.67
2022-12-01T18:05:31.639Z,35.38
2022-12-01T18:07:58.753Z,36.90
2022-12-01T18:10:25.500Z,33.40
2022-12-01T18:12:52.037Z,34.53
2022-12-01T18:15:18.693Z,33.25
2022-12-01T18:17:45.202Z,34.53
2022-12-01T18:20:12.029Z,35.13
2022-12-01T18:22:38.628Z,35.42
2022-12-01T18:25:05.888Z,35.70
2022-12-01T18:27:32.513Z,36.78
2022-12-01T18:29:59.137Z,36.15
2022-12-01T18:32:25.940Z,36.58
2022-12-01T18:34:53.002Z,36.83
2022-12-01T18:37:19.879Z,35.60
2022-12-01T18:39:46.455Z,35.00
2022-12-01T18:42:13.251Z,32.97
2022-12-01T18:44:39.804Z,33.72
2022-12-01T18:47:06.454Z,31.02
2022-12-01T18:49:33.141Z,30.88
2022-12-01T18:51:59.917Z,33.13
2022-12-01T18:54:26.852Z,29.92
2022-12-01T18:56:53.706Z,31.95
2022-12-01T18:59:20.333Z,30.85
2022-12-01T19:01:47.123Z,30.05
2022-12-01T19:04:14.965Z,28.85
2022-12-01T19:06:42.663Z,27.77
2022-12-01T19:09:11.474Z,30.02
2022-12-01T19:11:39.297Z,28.90
2022-12-01T19:14:11.942Z,34.53
2022-12-01T19:16:39.437Z,32.20
2022-12-01T19:19:06.056Z,31.38
2022-12-01T19:21:32.715Z,29.92
2022-12-01T19:23:59.412Z,30.70
2022-12-01T19:26:26.042Z,29.88
2022-12-01T19:28:52.979Z,28.23
2022-12-01T19:31:24.162Z,29.20
2022-12-01T19:33:55.624Z,28.60
2022-12-01T19:36:27.486Z,29.38
2022-12-01T19:38:57.460Z,29.15
2022-12-01T19:41:25.556Z,28.88
2022-12-01T19:43:53.378Z,29.48
2022-12-01T19:46:22.829Z,29.25
2022-12-01T19:48:55.232Z,30.40
2022-12-01T19:51:35.744Z,30.33
2022-12-01T19:54:07.151Z,30.30
2022-12-01T19:56:34.366Z,27.40
2022-12-01T19:59:02.011Z,26.42
2022-12-01T20:01:31.853Z,26.20
2022-12-01T20:03:58.496Z,27.83
2022-12-01T20:06:30.766Z,25.73
2022-12-01T20:08:59.526Z,27.27
2022-12-01T20:11:28.511Z,26.80
2022-12-01T20:13:55.671Z,25.88
2022-12-01T20:16:24.311Z,24.60
2022-12-01T20:18:51.740Z,28.45
2022-12-01T20:21:21.902Z,27.73
2022-12-01T20:23:51.890Z,25.97
2022-12-01T20:26:20.023Z,24.50
2022-12-01T20:28:49.196Z,23.80
2022-12-01T20:31:21.901Z,22.27
2022-12-01T20:33:49.384Z,22.38
2022-12-01T20:36:16.142Z,21.65
2022-12-01T20:38:42.825Z,21.33
2022-12-01T20:41:10.887Z,20.08
2022-12-01T20:43:37.718Z,21.10
2022-12-01T20:46:04.995Z,20.60
2022-12-01T20:48:32.451Z,22.48
2022-12-01T20:51:03.819Z,23.15
2022-12-01T20:53:30.722Z,21.92
2022-12-01T20:55:57.326Z,22.88
2022-12-01T20:58:24.125Z,24.85
2022-12-01T21:00:50.763Z,23.80
2022-12-01T21:03:17.532Z,23.90
2022-12-01T21:05:44.459Z,25.98
2022-12-01T21:08:13.276Z,23.63
2022-12-01T21:10:45.276Z,25.05
2022-12-01T21:13:21.835Z,24.40
2022-12-01T21:15:55.456Z,26.33
2022-12-01T21:18:29.758Z,26.38
2022-12-01T21:21:04.742Z,27.55
2022-12-01T21:23:31.343Z,25.90
2022-12-01T21:25:57.844Z,24.42
2022-12-01T21:28:26.652Z,22.35
2022-12-01T21:31:07.667Z,24.73
2022-12-01T21:33:35.767Z,18.92
2022-12-01T21:36:15.656Z,24.77
2022-12-01T21:38:43.663Z,22.85
2022-12-01T21:41:27.101Z,23.60
2022-12-01T21:44:07.724Z,24.55
2022-12-01T21:46:37.308Z,25.08
2022-12-01T21:49:17.469Z,25.88
2022-12-01T21:51:45.075Z,26.15
2022-12-01T21:54:22.883Z,27.20
2022-12-01T21:56:52.172Z,25.90
2022-12-01T21:59:23.571Z,24.67
2022-12-01T22:02:01.218Z,26.08
2022-12-01T22:04:31.506Z,26.30
2022-12-01T22:06:58.370Z,26.00
2022-12-01T22:09:29.373Z,25.77
2022-12-01T22:11:59.584Z,24.17
2022-12-01T22:14:34.389Z,23.90
2022-12-01T22:17:07.165Z,25.42
2022-12-01T22:19:37.621Z,26.33
2022-12-01T22:22:13.439Z,28.45
2022-12-01T22:24:48.961Z,24.13
2022-12-01T22:27:38.540Z,22.95
2022-12-01T22:30:08.160Z,25.40
2022-12-01T22:32:37.569Z,24.58
2022-12-01T22:35:16.267Z,23.30
2022-12-01T22:37:48.574Z,22.83
2022-12-01T22:40:49.219Z,23.83
2022-12-01T22:43:15.698Z,23.77
2022-12-01T22:45:43.663Z,24.17
2022-12-01T22:48:34.067Z,23.75
2022-12-01T22:51:16.802Z,22.23
2022-12-01T22:53:46.016Z,23.77
2022-12-01T22:56:42.334Z,22.83
2022-12-01T22:59:19.355Z,24.88
2022-12-01T23:01:53.846Z,25.70
2022-12-01T23:04:33.136Z,23.60
2022-12-01T23:07:10.255Z,22.63
2022-12-01T23:09:42.318Z,23.52
2022-12-01T23:12:11.869Z,23.58
2022-12-01T23:14:54.187Z,24.45
2022-12-01T23:17:29.378Z,23.15
2022-12-01T23:20:25.278Z,23.10
2022-12-01T23:22:56.677Z,20.17
2022-12-01T23:25:24.962Z,20.98
2022-12-01T23:27:52.801Z,21.85
2022-12-01T23:30:20.837Z,21.85
2022-12-01T23:33:03.930Z,21.25
2022-12-01T23:35:32.468Z,22.38
2022-12-01T23:37:58.996Z,22.17
2022-12-01T23:40:34.863Z,20.17
2022-12-01T23:43:23.000Z,22.42
2022-12-01T23:45:52.836Z,19.20
2022-12-01T23:48:23.160Z,19.25
2022-12-01T23:50:52.792Z,19.65
2022-12-01T23:53:32.450Z,18.52
2022-12-01T23:56:09.135Z,20.50
2022-12-01T23:58:35.764Z,17.90
